This is the latest recevied weather packets stored in our database for station/object IW1QQG-13. If no packets are shown the sender has not sent any weather packets the latest 10 day(s).
| Time | Temp. | Humidity | Pressure | Rain* | Wind** | Luminosity | Snow |
|---|---|---|---|---|---|---|---|
| 1777950353 | 13.89° C | 98% | 1011.2 hPa | 0 mm | - | 0 W/m² | - |
| 1777949753 | 14.44° C | 91% | 1011.2 hPa | 0 mm | - | 0 W/m² | - |
| 1777949153 | 13.33° C | 98% | 1010.5 hPa | 0 mm | - | 0 W/m² | - |
| 1777948553 | 13.89° C | 98% | 1011.9 hPa | 0 mm | - | 0 W/m² | - |
| 1777947953 | 13.33° C | 98% | 1011.9 hPa | 0 mm | - | 0 W/m² | - |
| 1777947353 | 13.33° C | 98% | 1012.2 hPa | 0 mm | - | 0 W/m² | - |
| 1777946753 | 13.89° C | 96% | 1012.5 hPa | 0 mm | - | 0 W/m² | - |
| 1777946153 | 13.89° C | 93% | 1012.5 hPa | 0 mm | - | 0 W/m² | - |
| 1777945553 | 14.44° C | 90% | 1012.2 hPa | 0 mm | - | 0 W/m² | - |
| 1777944953 | 14.44° C | 87% | 1011.9 hPa | 0 mm | - | 0 W/m² | - |
| 1777944353 | 15° C | 83% | 1011.9 hPa | 0 mm | - | 0 W/m² | - |
| 1777943753 | 14.44° C | 86% | 1012.2 hPa | 0 mm | - | 0 W/m² | - |
| 1777943153 | 14.44° C | 85% | 1012.5 hPa | 0 mm | - | 0 W/m² | - |
| 1777942553 | 13.89° C | 88% | 1012.9 hPa | 0 mm | - | 0 W/m² | - |
| 1777941953 | 13.89° C | 88% | 1012.9 hPa | 0 mm | - | 0 W/m² | - |
| 1777941353 | 13.89° C | 87% | 1013.5 hPa | 0 mm | - | 0 W/m² | - |
| 1777940753 | 13.89° C | 90% | 1013.5 hPa | 0 mm | - | 0 W/m² | - |
| 1777940152 | 14.44° C | 84% | 1013.5 hPa | 0 mm | - | 0 W/m² | - |
| 1777939553 | 14.44° C | 84% | 1013.5 hPa | 0 mm | - | 0 W/m² | - |
| 1777938953 | 14.44° C | 87% | 1013.9 hPa | 0 mm | - | 0 W/m² | - |
| 1777938353 | 14.44° C | 83% | 1013.9 hPa | 0 mm | - | 0 W/m² | - |
| 1777937753 | 15.56° C | 77% | 1013.5 hPa | 0 mm | - | 0 W/m² | - |
| 1777937153 | 15.56° C | 76% | 1013.9 hPa | 0 mm | - | 0 W/m² | - |
| 1777936552 | 15° C | 79% | 1013.9 hPa | 0 mm | - | 0 W/m² | - |
| 1777935953 | 15° C | 77% | 1014.2 hPa | 0 mm | - | 0 W/m² | - |
* Rain latest hour (hover to see other rain measurements)
** Current wind speed in m/s (hover to see current wind gust speed)